Terminal Aerodrome Forecast
Issued by NWS

Home | Current Version | Previous Version | Text Only | Print | Product List | Glossary On
Versions: 1 2 3 4 5 6 7 8 9 10 11 12 13 14 15 16 17 18 19 20 21 22 23 24 25 26 27
000
FTUS41 KOKX 061144
TAFGON
TAF
KGON 061144Z 0612/0712 36005KT P6SM SCT250
     FM061400 03007KT P6SM BKN250
     FM061900 11008KT P6SM SCT040 BKN150
     FM070100 09007KT 6SM -RA BKN030 BKN100
     FM070400 08010G17KT 6SM -RA BR SCT015 OVC025
     FM070800 05010G17KT 6SM -RA BR SCT010 OVC020=

USA.gov is the U.S. government's official web portal to all federal, state and local government web resources and services.